createdAt,value
2023-02-27T00:02:13.339Z,2.17
2023-02-27T00:04:40.010Z,2.95
2023-02-27T00:07:07.347Z,2.28
2023-02-27T00:09:34.062Z,2.28
2023-02-27T00:12:01.572Z,3.00
2023-02-27T00:14:28.320Z,2.53
2023-02-27T00:16:55.005Z,2.30
2023-02-27T00:19:21.937Z,2.20
2023-02-27T00:21:48.692Z,3.30
2023-02-27T00:24:15.429Z,2.70
2023-02-27T00:26:42.050Z,2.47
2023-02-27T00:29:08.799Z,2.50
2023-02-27T00:31:35.617Z,2.55
2023-02-27T00:34:02.970Z,2.70
2023-02-27T00:36:30.120Z,2.25
2023-02-27T00:38:56.777Z,2.15
2023-02-27T00:41:23.551Z,2.42
2023-02-27T00:43:50.237Z,2.40
2023-02-27T00:46:17.088Z,2.03
2023-02-27T00:48:43.808Z,2.22
2023-02-27T00:51:10.475Z,2.70
2023-02-27T00:53:37.178Z,2.17
2023-02-27T00:56:04.026Z,2.13
2023-02-27T00:58:30.885Z,2.97
2023-02-27T01:00:59.889Z,2.65
2023-02-27T01:03:26.884Z,2.50
2023-02-27T01:05:53.542Z,2.80
2023-02-27T01:08:20.795Z,2.10
2023-02-27T01:10:47.521Z,1.98
2023-02-27T01:13:14.225Z,2.75
2023-02-27T01:15:40.955Z,2.78
2023-02-27T01:18:07.753Z,2.67
2023-02-27T01:20:34.459Z,2.83
2023-02-27T01:23:01.186Z,2.38
2023-02-27T01:25:27.925Z,2.35
2023-02-27T01:27:54.687Z,2.30
2023-02-27T01:30:21.336Z,3.00
2023-02-27T01:32:48.027Z,2.17
2023-02-27T01:35:14.807Z,2.78
2023-02-27T01:37:41.666Z,2.90
2023-02-27T01:40:09.490Z,2.78
2023-02-27T01:42:36.440Z,2.05
2023-02-27T01:45:12.293Z,2.42
2023-02-27T01:47:42.200Z,2.28
2023-02-27T01:50:09.644Z,2.42
2023-02-27T01:52:38.564Z,2.85
2023-02-27T01:55:08.653Z,2.72
2023-02-27T01:57:36.348Z,3.22
2023-02-27T02:00:04.719Z,2.80
2023-02-27T02:02:37.559Z,3.25
2023-02-27T02:05:06.074Z,3.20
2023-02-27T02:07:35.212Z,2.65
2023-02-27T02:10:02.719Z,2.50
2023-02-27T02:12:34.043Z,2.70
2023-02-27T02:15:00.794Z,2.83
2023-02-27T02:17:33.162Z,2.90
2023-02-27T02:20:24.220Z,3.03
2023-02-27T02:23:18.164Z,2.72
2023-02-27T02:26:06.895Z,2.80
2023-02-27T02:29:03.343Z,2.25
2023-02-27T02:31:51.456Z,2.28
2023-02-27T02:34:30.058Z,2.55
2023-02-27T02:37:02.311Z,2.65
2023-02-27T02:39:39.956Z,2.53
2023-02-27T02:42:24.155Z,2.65
2023-02-27T02:44:53.588Z,2.50
2023-02-27T02:47:38.157Z,2.55
2023-02-27T02:50:42.565Z,2.72
2023-02-27T02:53:36.151Z,2.35
2023-02-27T02:56:12.475Z,2.13
2023-02-27T02:59:00.812Z,2.33
2023-02-27T03:01:36.858Z,2.38
2023-02-27T03:04:29.496Z,2.15
2023-02-27T03:07:25.238Z,2.47
2023-02-27T03:10:03.516Z,2.45
2023-02-27T03:12:32.988Z,2.42
2023-02-27T03:15:06.548Z,2.20
2023-02-27T03:17:35.909Z,2.17
2023-02-27T03:20:08.278Z,2.90
2023-02-27T03:22:42.451Z,2.58
2023-02-27T03:25:12.083Z,2.78
2023-02-27T03:27:51.339Z,2.25
2023-02-27T03:30:30.865Z,2.28
2023-02-27T03:33:02.769Z,2.88
2023-02-27T03:35:43.730Z,2.28
2023-02-27T03:38:24.302Z,2.65
2023-02-27T03:41:22.276Z,2.70
2023-02-27T03:44:07.855Z,2.90
2023-02-27T03:46:35.426Z,2.75
2023-02-27T03:49:02.195Z,2.30
2023-02-27T03:51:31.148Z,2.80
2023-02-27T03:54:00.456Z,3.03
2023-02-27T03:56:37.953Z,3.10
2023-02-27T03:59:05.307Z,3.05
2023-02-27T04:01:31.892Z,2.58
2023-02-27T04:04:08.407Z,2.50
2023-02-27T04:06:56.706Z,2.90
2023-02-27T04:09:43.125Z,2.88
2023-02-27T04:12:24.759Z,2.70
2023-02-27T04:15:03.004Z,2.92
2023-02-27T04:17:31.405Z,2.72
2023-02-27T04:20:20.603Z,3.05
2023-02-27T04:22:49.147Z,2.42
2023-02-27T04:25:34.314Z,2.70
2023-02-27T04:28:17.616Z,2.90
2023-02-27T04:31:16.456Z,3.33
2023-02-27T04:33:52.035Z,2.90
2023-02-27T04:36:18.575Z,2.40
2023-02-27T04:38:51.467Z,2.95
2023-02-27T04:41:23.221Z,3.10
2023-02-27T04:43:52.004Z,2.42
2023-02-27T04:46:23.741Z,3.20
2023-02-27T04:49:12.524Z,2.75
2023-02-27T04:51:51.929Z,2.72
2023-02-27T04:54:26.547Z,3.08
2023-02-27T04:56:57.741Z,2.88
2023-02-27T04:59:41.218Z,2.60
2023-02-27T05:02:25.844Z,2.65
2023-02-27T05:04:58.199Z,3.40
2023-02-27T05:07:31.531Z,2.45
2023-02-27T05:10:00.764Z,2.65
2023-02-27T05:12:47.704Z,2.97
2023-02-27T05:15:35.864Z,2.63
2023-02-27T05:18:05.607Z,3.10
2023-02-27T05:20:59.043Z,2.80
2023-02-27T05:23:39.988Z,2.75
2023-02-27T05:26:22.092Z,2.78
2023-02-27T05:29:02.725Z,2.58
2023-02-27T05:31:43.931Z,2.78
2023-02-27T05:34:39.822Z,3.00
2023-02-27T05:37:18.466Z,3.35
2023-02-27T05:39:47.356Z,3.10
2023-02-27T05:42:24.835Z,2.83
2023-02-27T05:45:00.747Z,2.40
2023-02-27T05:47:31.360Z,3.22
2023-02-27T05:50:12.492Z,3.22
2023-02-27T05:52:41.074Z,3.10
2023-02-27T05:55:30.500Z,2.75
2023-02-27T05:58:14.064Z,2.78
2023-02-27T06:00:46.793Z,2.75
2023-02-27T06:03:14.141Z,2.60
2023-02-27T06:05:42.869Z,2.70
2023-02-27T06:08:10.354Z,2.72
2023-02-27T06:10:38.014Z,2.30
2023-02-27T06:13:04.605Z,3.47
2023-02-27T06:15:31.213Z,2.70
2023-02-27T06:17:58.001Z,2.80
2023-02-27T06:20:24.577Z,2.65
2023-02-27T06:22:51.201Z,2.30
2023-02-27T06:25:17.974Z,2.88
2023-02-27T06:27:44.604Z,2.67
2023-02-27T06:30:11.812Z,3.17
2023-02-27T06:32:38.445Z,3.10
2023-02-27T06:35:06.456Z,2.70
2023-02-27T06:37:33.630Z,2.45
2023-02-27T06:40:00.298Z,2.45
2023-02-27T06:42:27.513Z,3.03
2023-02-27T06:44:54.154Z,3.00
2023-02-27T06:47:20.707Z,2.63
2023-02-27T06:49:47.351Z,2.53
2023-02-27T06:52:13.987Z,2.90
2023-02-27T06:54:40.633Z,3.05
2023-02-27T06:57:07.261Z,2.75
2023-02-27T06:59:33.989Z,2.60
2023-02-27T07:02:00.726Z,2.72
2023-02-27T07:04:27.363Z,2.95
2023-02-27T07:07:34.107Z,2.05
2023-02-27T07:09:40.555Z,2.40
2023-02-27T07:12:08.126Z,2.60
2023-02-27T07:14:35.017Z,2.80
2023-02-27T07:17:04.783Z,2.90
2023-02-27T07:19:33.788Z,3.00
2023-02-27T07:22:00.394Z,2.67
2023-02-27T07:24:27.000Z,3.00
2023-02-27T07:26:54.940Z,2.78
2023-02-27T07:29:21.513Z,2.90
2023-02-27T07:31:48.386Z,2.92
2023-02-27T07:34:15.691Z,3.17
2023-02-27T07:36:42.537Z,2.67
2023-02-27T07:39:10.711Z,2.85
2023-02-27T07:41:37.350Z,2.92
2023-02-27T07:44:04.060Z,2.25
2023-02-27T07:46:31.142Z,2.80
2023-02-27T07:48:58.030Z,3.17
2023-02-27T07:51:24.609Z,2.70
2023-02-27T07:53:51.262Z,2.50
2023-02-27T07:56:17.912Z,2.55
2023-02-27T07:58:44.484Z,3.00
2023-02-27T08:01:11.223Z,3.05
2023-02-27T08:03:37.803Z,2.83
2023-02-27T08:06:04.655Z,2.63
2023-02-27T08:08:31.210Z,2.78
2023-02-27T08:10:58.546Z,3.00
2023-02-27T08:13:48.322Z,2.60
2023-02-27T08:16:11.975Z,2.92
2023-02-27T08:18:39.130Z,2.58
2023-02-27T08:21:06.004Z,2.88
2023-02-27T08:23:34.613Z,2.88
2023-02-27T08:26:02.493Z,3.50
2023-02-27T08:28:29.380Z,2.30
2023-02-27T08:30:56.228Z,3.08
2023-02-27T08:33:23.996Z,3.10
2023-02-27T08:35:50.634Z,2.80
2023-02-27T08:38:17.232Z,2.80
2023-02-27T08:40:43.783Z,3.15
2023-02-27T08:43:10.428Z,3.00
2023-02-27T08:45:37.056Z,2.90
2023-02-27T08:48:03.884Z,2.85
2023-02-27T08:50:30.510Z,2.90
2023-02-27T08:52:57.210Z,3.08
2023-02-27T08:55:23.889Z,2.67
2023-02-27T08:57:50.460Z,2.47
2023-02-27T09:00:17.818Z,3.55
2023-02-27T09:02:44.586Z,2.55
2023-02-27T09:05:11.517Z,2.65
2023-02-27T09:07:38.187Z,2.95
2023-02-27T09:10:05.820Z,2.90
2023-02-27T09:12:32.703Z,2.92
2023-02-27T09:14:59.297Z,3.10
2023-02-27T09:17:26.301Z,3.40
2023-02-27T09:19:53.067Z,2.88
2023-02-27T09:22:20.104Z,3.20
2023-02-27T09:24:46.722Z,3.42
2023-02-27T09:27:13.427Z,3.03
2023-02-27T09:29:40.036Z,3.20
2023-02-27T09:32:06.788Z,3.60
2023-02-27T09:34:33.728Z,2.72
2023-02-27T09:37:01.109Z,2.58
2023-02-27T09:39:30.004Z,3.60
2023-02-27T09:42:02.741Z,1.75
2023-02-27T09:44:47.430Z,3.35
2023-02-27T09:47:39.754Z,3.60
2023-02-27T09:50:42.815Z,3.65
2023-02-27T09:53:34.893Z,3.10
2023-02-27T09:56:15.586Z,3.15
2023-02-27T09:58:52.176Z,2.83
2023-02-27T10:01:24.239Z,4.00
2023-02-27T10:04:11.100Z,3.22
2023-02-27T10:06:45.838Z,3.30
2023-02-27T10:09:22.481Z,3.33
2023-02-27T10:12:18.536Z,3.65
2023-02-27T10:14:52.588Z,2.65
2023-02-27T10:19:53.721Z,2.80
2023-02-27T10:22:28.830Z,3.20
2023-02-27T10:25:08.987Z,3.30
2023-02-27T10:27:39.786Z,2.90
2023-02-27T10:30:29.200Z,3.22
2023-02-27T10:33:10.942Z,3.30
2023-02-27T10:35:40.369Z,3.25
2023-02-27T10:38:14.649Z,3.67
2023-02-27T10:40:42.915Z,3.97
2023-02-27T10:43:14.746Z,3.42
2023-02-27T10:45:42.321Z,4.25
2023-02-27T10:48:09.008Z,3.83
2023-02-27T10:50:39.702Z,3.58
2023-02-27T10:53:27.323Z,3.50
2023-02-27T10:56:17.166Z,3.85
2023-02-27T10:58:43.859Z,3.55
2023-02-27T11:01:11.568Z,3.13
2023-02-27T11:03:43.573Z,4.10
2023-02-27T11:06:10.179Z,4.05
2023-02-27T11:08:36.844Z,3.50
2023-02-27T11:11:06.727Z,3.22
2023-02-27T11:13:38.987Z,3.17
2023-02-27T11:16:06.292Z,3.28
2023-02-27T11:18:34.400Z,3.53
2023-02-27T11:21:20.204Z,3.38
2023-02-27T11:24:02.258Z,3.03
2023-02-27T11:26:28.852Z,3.80
2023-02-27T11:29:18.936Z,3.40
2023-02-27T11:31:48.702Z,3.67
2023-02-27T11:34:23.994Z,2.83
2023-02-27T11:36:55.259Z,3.33
2023-02-27T11:39:35.107Z,3.53
2023-02-27T11:42:29.057Z,3.60
2023-02-27T11:45:03.472Z,3.08
2023-02-27T11:47:34.627Z,3.58
2023-02-27T11:50:35.523Z,3.40
2023-02-27T11:53:30.069Z,3.10
2023-02-27T11:56:00.155Z,3.45
2023-02-27T11:58:30.206Z,3.28
2023-02-27T12:01:09.018Z,3.17
2023-02-27T12:04:04.520Z,3.30
2023-02-27T12:06:46.861Z,3.53
2023-02-27T12:09:31.538Z,2.85
2023-02-27T12:12:01.607Z,2.70
2023-02-27T12:14:37.394Z,3.03
2023-02-27T12:17:14.817Z,2.30
2023-02-27T12:19:58.218Z,3.17
2023-02-27T12:22:38.959Z,3.57
2023-02-27T12:25:12.225Z,3.03
2023-02-27T12:27:49.085Z,3.28
2023-02-27T12:30:23.366Z,2.80
2023-02-27T12:32:54.036Z,2.90
2023-02-27T12:35:29.496Z,2.60
2023-02-27T12:37:57.705Z,2.38
2023-02-27T12:40:56.549Z,3.00
2023-02-27T12:43:38.197Z,2.40
2023-02-27T12:46:27.158Z,2.60
2023-02-27T12:49:19.637Z,2.60
2023-02-27T12:52:13.063Z,2.53
2023-02-27T12:54:53.565Z,2.65
2023-02-27T12:57:37.841Z,2.85
2023-02-27T13:03:13.578Z,2.30
2023-02-27T13:06:17.465Z,2.70
2023-02-27T13:08:50.051Z,2.95
2023-02-27T13:11:18.611Z,2.35
2023-02-27T13:13:51.141Z,2.97
2023-02-27T13:16:31.650Z,2.42
2023-02-27T13:19:22.091Z,2.10
2023-02-27T13:21:57.495Z,2.72
2023-02-27T13:24:31.060Z,2.78
2023-02-27T13:27:06.786Z,2.83
2023-02-27T13:29:40.884Z,2.10
2023-02-27T13:32:14.711Z,2.92
2023-02-27T13:34:49.234Z,2.05
2023-02-27T13:37:16.091Z,2.28
2023-02-27T13:39:46.018Z,2.50
2023-02-27T13:42:27.708Z,3.03
2023-02-27T13:45:02.555Z,2.47
2023-02-27T13:47:29.163Z,2.50
2023-02-27T13:50:01.576Z,2.50
2023-02-27T13:52:33.657Z,3.20
2023-02-27T13:55:11.169Z,2.85
2023-02-27T13:57:38.814Z,2.95
2023-02-27T14:00:21.185Z,2.20
2023-02-27T14:02:59.730Z,2.45
2023-02-27T14:05:39.098Z,2.88
2023-02-27T14:08:32.102Z,2.65
2023-02-27T14:11:17.366Z,2.67
2023-02-27T14:13:50.092Z,2.72
2023-02-27T14:16:41.722Z,2.80
2023-02-27T14:19:11.519Z,2.58
2023-02-27T14:22:24.474Z,3.20
2023-02-27T14:25:05.308Z,3.58
2023-02-27T14:27:46.380Z,3.20
2023-02-27T14:30:28.295Z,3.20
2023-02-27T14:32:59.643Z,3.30
2023-02-27T14:35:27.909Z,3.65
2023-02-27T14:37:54.777Z,3.05
2023-02-27T14:40:35.140Z,3.00
2023-02-27T14:43:20.875Z,4.28
2023-02-27T14:45:48.859Z,3.53
2023-02-27T14:48:26.916Z,2.45
2023-02-27T14:50:54.654Z,2.90
2023-02-27T14:53:26.459Z,3.63
2023-02-27T14:55:58.579Z,3.25
2023-02-27T14:58:26.218Z,2.42
2023-02-27T15:00:55.837Z,2.50
2023-02-27T15:03:27.325Z,3.03
2023-02-27T15:05:57.816Z,3.40
2023-02-27T15:08:28.502Z,2.90
2023-02-27T15:10:56.968Z,2.35
2023-02-27T15:13:42.474Z,2.85
2023-02-27T15:16:30.846Z,2.75
2023-02-27T15:19:02.768Z,2.88
2023-02-27T15:21:32.905Z,3.25
2023-02-27T15:24:05.973Z,3.20
2023-02-27T15:26:40.521Z,2.63
2023-02-27T15:29:08.800Z,3.35
2023-02-27T15:31:35.772Z,3.20
2023-02-27T15:34:04.176Z,2.85
2023-02-27T15:36:35.686Z,3.40
2023-02-27T15:39:23.775Z,3.08
2023-02-27T15:42:01.160Z,3.28
2023-02-27T15:44:40.811Z,2.95
2023-02-27T15:47:09.886Z,2.95
2023-02-27T15:49:37.533Z,3.00
2023-02-27T15:52:19.967Z,3.30
2023-02-27T15:54:50.834Z,3.30
2023-02-27T15:57:17.767Z,2.97
2023-02-27T15:59:44.429Z,3.10
2023-02-27T16:02:41.594Z,3.13
2023-02-27T16:05:20.572Z,3.42
2023-02-27T16:07:47.998Z,3.63
2023-02-27T16:10:23.200Z,3.20
2023-02-27T16:12:50.103Z,3.17
2023-02-27T16:15:38.306Z,2.80
2023-02-27T16:18:08.043Z,3.38
2023-02-27T16:20:45.251Z,3.58
2023-02-27T16:23:20.838Z,3.28
2023-02-27T16:26:09.020Z,3.00
2023-02-27T16:28:45.181Z,2.72
2023-02-27T16:31:33.724Z,3.50
2023-02-27T16:34:03.419Z,3.03
2023-02-27T16:36:31.604Z,3.00
2023-02-27T16:38:58.384Z,2.95
2023-02-27T16:41:25.596Z,3.05
2023-02-27T16:43:53.532Z,2.80
2023-02-27T16:46:22.252Z,2.47
2023-02-27T16:48:51.297Z,3.13
2023-02-27T16:51:20.234Z,3.08
2023-02-27T16:53:48.160Z,3.75
2023-02-27T16:56:15.440Z,3.17
2023-02-27T16:58:42.840Z,3.90
2023-02-27T17:01:09.514Z,3.83
2023-02-27T17:03:36.119Z,3.28
2023-02-27T17:06:03.512Z,3.40
2023-02-27T17:08:31.212Z,3.92
2023-02-27T17:10:58.214Z,3.50
2023-02-27T17:13:25.368Z,3.42
2023-02-27T17:15:52.447Z,3.33
2023-02-27T17:18:19.733Z,3.60
2023-02-27T17:20:46.470Z,2.97
2023-02-27T17:23:14.462Z,3.42
2023-02-27T17:25:42.442Z,3.95
2023-02-27T17:28:09.617Z,3.50
2023-02-27T17:30:36.421Z,3.50
2023-02-27T17:33:04.255Z,3.53
2023-02-27T17:35:31.135Z,3.45
2023-02-27T17:37:59.461Z,3.33
2023-02-27T17:40:26.528Z,3.58
2023-02-27T17:42:53.221Z,3.65
2023-02-27T17:45:24.584Z,3.55
2023-02-27T17:47:51.132Z,4.18
2023-02-27T17:50:17.772Z,3.28
2023-02-27T17:52:45.722Z,3.33
2023-02-27T17:55:14.286Z,3.53
2023-02-27T17:57:40.897Z,4.20
2023-02-27T18:00:10.070Z,4.80
2023-02-27T18:02:37.211Z,4.40
2023-02-27T18:05:04.760Z,3.80
2023-02-27T18:07:31.565Z,4.60
2023-02-27T18:09:58.268Z,4.32
2023-02-27T18:12:25.441Z,3.90
2023-02-27T18:14:52.104Z,4.47
2023-02-27T18:17:18.660Z,4.32
2023-02-27T18:19:45.319Z,4.35
2023-02-27T18:22:15.188Z,3.88
2023-02-27T18:24:41.953Z,4.35
2023-02-27T18:27:08.647Z,3.88
2023-02-27T18:29:36.530Z,4.18
2023-02-27T18:32:03.439Z,3.53
2023-02-27T18:34:30.440Z,3.67
2023-02-27T18:36:58.261Z,4.05
2023-02-27T18:39:25.043Z,4.70
2023-02-27T18:41:51.760Z,4.50
2023-02-27T18:44:18.406Z,3.92
2023-02-27T18:46:45.174Z,3.85
2023-02-27T18:49:11.841Z,3.97
2023-02-27T18:51:38.390Z,3.97
2023-02-27T18:54:07.040Z,4.18
2023-02-27T18:56:33.737Z,3.80
2023-02-27T18:59:05.138Z,3.80
2023-02-27T19:01:35.548Z,4.20
2023-02-27T19:04:04.839Z,4.80
2023-02-27T19:06:36.859Z,4.38
2023-02-27T19:09:09.053Z,4.35
2023-02-27T19:11:36.613Z,5.30
2023-02-27T19:14:05.708Z,5.00
2023-02-27T19:16:33.257Z,3.88
2023-02-27T19:19:01.640Z,4.03
2023-02-27T19:21:29.250Z,4.50
2023-02-27T19:23:55.965Z,3.85
2023-02-27T19:26:24.221Z,4.68
2023-02-27T19:28:52.130Z,4.38
2023-02-27T19:31:18.978Z,4.15
2023-02-27T19:33:45.602Z,3.90
2023-02-27T19:36:15.287Z,3.78
2023-02-27T19:38:42.344Z,4.03
2023-02-27T19:41:11.995Z,4.50
2023-02-27T19:43:40.275Z,4.65
2023-02-27T19:46:13.020Z,3.90
2023-02-27T19:48:40.286Z,3.88
2023-02-27T19:51:09.403Z,4.07
2023-02-27T19:53:37.727Z,4.15
2023-02-27T19:56:11.650Z,3.65
2023-02-27T20:01:07.246Z,4.25
2023-02-27T20:03:35.333Z,4.03
2023-02-27T20:06:06.317Z,4.65
2023-02-27T20:08:34.017Z,3.75
2023-02-27T20:11:04.283Z,4.15
2023-02-27T20:13:31.451Z,3.97
2023-02-27T20:16:02.431Z,3.88
2023-02-27T20:18:30.261Z,4.15
2023-02-27T20:21:06.623Z,3.80
2023-02-27T20:23:35.354Z,3.83
2023-02-27T20:26:11.968Z,4.15
2023-02-27T20:28:39.322Z,3.90
2023-02-27T20:31:13.880Z,4.45
2023-02-27T20:33:41.293Z,4.18
2023-02-27T20:36:09.803Z,4.20
2023-02-27T20:38:39.493Z,3.55
2023-02-27T20:41:11.753Z,4.28
2023-02-27T20:43:38.824Z,3.95
2023-02-27T20:46:07.357Z,3.97
2023-02-27T20:48:33.970Z,4.00
2023-02-27T20:51:12.114Z,5.07
2023-02-27T20:53:40.733Z,4.20
2023-02-27T20:56:08.452Z,4.15
2023-02-27T20:58:35.838Z,4.03
2023-02-27T21:01:04.282Z,3.75
2023-02-27T21:03:38.572Z,4.30
2023-02-27T21:06:06.936Z,4.55
2023-02-27T21:08:38.875Z,3.78
2023-02-27T21:11:10.678Z,4.15
2023-02-27T21:13:37.854Z,3.90
2023-02-27T21:16:06.115Z,5.38
2023-02-27T21:18:34.143Z,4.07
2023-02-27T21:21:06.654Z,3.60
2023-02-27T21:23:34.522Z,3.90
2023-02-27T21:26:01.176Z,3.65
2023-02-27T21:28:27.839Z,3.72
2023-02-27T21:30:54.592Z,3.85
2023-02-27T21:33:24.256Z,3.67
2023-02-27T21:35:50.847Z,3.90
2023-02-27T21:38:17.512Z,3.30
2023-02-27T21:40:44.233Z,4.10
2023-02-27T21:43:10.833Z,3.70
2023-02-27T21:45:41.582Z,3.88
2023-02-27T21:48:08.361Z,3.60
2023-02-27T21:50:35.997Z,3.60
2023-02-27T21:53:02.630Z,3.70
2023-02-27T21:55:29.270Z,3.63
2023-02-27T21:57:56.988Z,2.95
2023-02-27T22:00:26.720Z,3.78
2023-02-27T22:02:53.746Z,4.03
2023-02-27T22:05:20.605Z,3.58
2023-02-27T22:07:47.673Z,3.45
2023-02-27T22:10:14.266Z,3.40
2023-02-27T22:12:40.941Z,3.22
2023-02-27T22:15:08.336Z,3.33
2023-02-27T22:17:34.965Z,3.10
2023-02-27T22:20:01.605Z,2.67
2023-02-27T22:22:28.268Z,3.30
2023-02-27T22:24:55.184Z,3.72
2023-02-27T22:27:21.774Z,3.50
2023-02-27T22:29:48.357Z,3.28
2023-02-27T22:32:15.016Z,2.63
2023-02-27T22:34:41.708Z,3.08
2023-02-27T22:37:08.261Z,2.70
2023-02-27T22:39:34.838Z,2.78
2023-02-27T22:42:01.566Z,2.90
2023-02-27T22:44:28.172Z,3.40
2023-02-27T22:46:55.759Z,2.72
2023-02-27T22:49:23.903Z,2.47
2023-02-27T22:51:52.003Z,2.75
2023-02-27T22:54:21.296Z,2.67
2023-02-27T22:56:51.010Z,2.47
2023-02-27T22:59:17.743Z,2.80
2023-02-27T23:01:44.494Z,2.70
2023-02-27T23:04:11.888Z,2.35
2023-02-27T23:06:40.490Z,2.40
2023-02-27T23:09:10.990Z,2.70
2023-02-27T23:11:37.588Z,2.53
2023-02-27T23:14:04.256Z,2.58
2023-02-27T23:16:30.885Z,2.10
2023-02-27T23:18:59.722Z,2.47
2023-02-27T23:21:32.245Z,2.22
2023-02-27T23:23:58.858Z,2.22
2023-02-27T23:26:28.499Z,2.47
2023-02-27T23:28:56.713Z,2.65
2023-02-27T23:31:23.402Z,2.40
2023-02-27T23:33:50.388Z,2.22
2023-02-27T23:36:17.772Z,2.35
2023-02-27T23:38:46.665Z,2.42
2023-02-27T23:41:16.823Z,2.80
2023-02-27T23:43:44.958Z,2.85
2023-02-27T23:46:14.403Z,2.63
2023-02-27T23:48:41.755Z,2.58
2023-02-27T23:51:09.492Z,2.60
2023-02-27T23:53:37.639Z,2.28
2023-02-27T23:56:25.620Z,2.22
2023-02-27T23:59:01.560Z,2.45
